Terminal Aerodrome Forecast
Issued by NWS

Home | Current Version | Previous Version | Text Only | Print | Product List | Glossary On
Versions: 1 2 3 4 5 6 7 8 9 10 11 12
000
FTUS43 KAPX 250528
TAFTVC
TAF
KTVC 250528Z 2506/2606 00000KT P6SM SCT070 SCT120
     FM251600 04006KT P6SM SCT060 BKN250
     FM260100 11003KT P6SM BKN120
     FM260500 11004KT P6SM -SHRA BKN040 OVC120=

USA.gov is the U.S. government's official web portal to all federal, state and local government web resources and services.